Time;durP1;ratioP1;P1;durP2;ratioP2;P2;SDS_P1;SDS_P2;PMS_P1;PMS_P2;Temp;Humidity;BMP_temperature;BMP_pressure;BME280_temperature;BME280_humidity;BME280_pressure;Samples;Min_cycle;Max_cycle;Signal;HPM_P1;HPM_P2
2023/05/27 00:03:58;;;;;;;7.50;3.53;;;;;;;;;;10520112;28;20172;-56
2023/05/27 00:08:58;;;;;;;6.65;4.13;;;;;;;;;;10538145;28;20363;-57
2023/05/27 00:13:59;;;;;;;5.28;3.30;;;;;;;;;;10543028;28;20345;-57
2023/05/27 00:19:00;;;;;;;8.23;2.90;;;;;;;;;;10537503;28;20080;-56
2023/05/27 00:24:00;;;;;;;8.63;3.55;;;;;;;;;;10537884;28;20414;-57
2023/05/27 00:29:01;;;;;;;6.03;3.10;;;;;;;;;;10536669;28;20020;-56
2023/05/27 00:34:02;;;;;;;3.65;3.28;;;;;;;;;;10535574;28;20074;-55
2023/05/27 00:39:03;;;;;;;3.97;2.88;;;;;;;;;;10537237;28;20134;-57
2023/05/27 00:44:04;;;;;;;3.90;3.00;;;;;;;;;;10537232;28;20075;-56
2023/05/27 00:49:04;;;;;;;3.97;3.03;;;;;;;;;;10537337;28;20032;-56
2023/05/27 00:54:07;;;;;;;4.57;2.70;;;;;;;;;;10518665;28;20028;-57
2023/05/27 00:59:08;;;;;;;6.13;2.90;;;;;;;;;;10536323;28;20028;-56
2023/05/27 01:04:12;;;;;;;7.07;2.97;;;;;;;;;;10535730;28;20139;-57
2023/05/27 01:09:44;;;;;;;4.75;2.78;;;;;;;;;;10510410;28;20024;-57
2023/05/27 01:14:49;;;;;;;6.53;3.10;;;;;;;;;;10533463;28;20027;-57
2023/05/27 01:19:51;;;;;;;3.40;3.10;;;;;;;;;;10516003;28;20055;-57
2023/05/27 01:24:51;;;;;;;3.92;2.55;;;;;;;;;;10533850;28;20036;-57
2023/05/27 01:29:53;;;;;;;5.28;2.95;;;;;;;;;;10535159;28;20097;-58
2023/05/27 01:35:05;;;;;;;2.50;2.30;;;;;;;;;;10535449;28;20444;-57
2023/05/27 01:40:15;;;;;;;3.72;2.63;;;;;;;;;;10516973;28;20432;-59
2023/05/27 01:45:16;;;;;;;2.88;2.30;;;;;;;;;;10534568;28;20036;-57
2023/05/27 01:50:16;;;;;;;3.30;2.45;;;;;;;;;;10534614;28;20024;-57
2023/05/27 01:55:17;;;;;;;5.30;2.65;;;;;;;;;;10533385;28;20437;-57
2023/05/27 02:00:18;;;;;;;3.28;2.78;;;;;;;;;;10534030;28;20032;-58
2023/05/27 02:05:19;;;;;;;4.68;2.55;;;;;;;;;;10532705;28;20104;-57
2023/05/27 02:10:19;;;;;;;3.42;2.63;;;;;;;;;;10534187;28;20020;-58
2023/05/27 02:15:23;;;;;;;2.97;2.55;;;;;;;;;;10537895;28;20028;-57
2023/05/27 02:20:24;;;;;;;7.90;3.00;;;;;;;;;;10533462;28;20031;-57
2023/05/27 02:25:24;;;;;;;3.72;2.70;;;;;;;;;;10532654;28;20078;-59
2023/05/27 02:30:25;;;;;;;2.92;2.20;;;;;;;;;;10531995;28;20251;-58
2023/05/27 02:35:26;;;;;;;2.55;2.35;;;;;;;;;;10533829;28;20040;-58
2023/05/27 02:40:29;;;;;;;2.55;2.33;;;;;;;;;;10533275;28;20425;-58
2023/05/27 02:45:30;;;;;;;3.40;2.55;;;;;;;;;;10533332;28;20283;-57
2023/05/27 02:50:31;;;;;;;5.80;2.30;;;;;;;;;;10531900;28;20571;-57
2023/05/27 02:55:32;;;;;;;3.85;2.63;;;;;;;;;;10530864;28;20040;-59
2023/05/27 03:00:34;;;;;;;2.20;2.10;;;;;;;;;;10530346;28;20386;-58
2023/05/27 03:05:35;;;;;;;2.33;2.05;;;;;;;;;;10530846;28;20032;-57
2023/05/27 03:10:36;;;;;;;3.55;2.05;;;;;;;;;;10533231;28;20031;-58
2023/05/27 03:15:36;;;;;;;2.53;2.30;;;;;;;;;;10537459;28;20054;-58
2023/05/27 03:20:37;;;;;;;4.38;2.75;;;;;;;;;;10532247;28;20032;-58
2023/05/27 03:25:37;;;;;;;4.50;2.75;;;;;;;;;;10531443;28;20032;-58
2023/05/27 03:30:38;;;;;;;3.67;2.30;;;;;;;;;;10531464;28;20028;-55
2023/05/27 03:35:39;;;;;;;4.28;2.40;;;;;;;;;;10531226;28;20364;-55
2023/05/27 03:40:39;;;;;;;2.30;2.10;;;;;;;;;;10519314;28;20410;-56
2023/05/27 03:45:40;;;;;;;4.15;2.30;;;;;;;;;;10538639;28;20414;-57
2023/05/27 03:50:40;;;;;;;4.22;2.22;;;;;;;;;;10539253;28;20472;-56
2023/05/27 03:55:41;;;;;;;2.97;2.40;;;;;;;;;;10538468;28;20032;-57
2023/05/27 04:00:42;;;;;;;4.28;2.13;;;;;;;;;;10537508;28;20035;-58
2023/05/27 04:05:42;;;;;;;3.05;2.30;;;;;;;;;;10538068;28;20085;-58
2023/05/27 04:10:43;;;;;;;3.58;2.13;;;;;;;;;;10538568;28;20028;-58
2023/05/27 04:15:44;;;;;;;4.90;2.22;;;;;;;;;;10542394;28;20494;-58
2023/05/27 04:20:47;;;;;;;2.97;2.58;;;;;;;;;;10537529;28;20580;-57
2023/05/27 04:25:48;;;;;;;6.85;1.98;;;;;;;;;;10523128;28;20055;-58
2023/05/27 04:30:50;;;;;;;3.15;2.35;;;;;;;;;;10524813;28;20544;-57
2023/05/27 04:35:53;;;;;;;2.75;2.20;;;;;;;;;;10538386;28;20549;-58
2023/05/27 04:40:55;;;;;;;2.58;2.38;;;;;;;;;;10524145;28;20035;-57
2023/05/27 04:45:59;;;;;;;6.22;2.50;;;;;;;;;;10535793;28;20048;-58
2023/05/27 04:50:59;;;;;;;4.35;2.65;;;;;;;;;;10535519;28;20024;-57
2023/05/27 04:56:00;;;;;;;4.47;2.55;;;;;;;;;;10534222;28;20071;-58
2023/05/27 05:01:01;;;;;;;3.05;2.65;;;;;;;;;;10536656;28;20368;-57
2023/05/27 05:06:02;;;;;;;2.95;2.40;;;;;;;;;;10521337;28;20125;-57
2023/05/27 05:11:03;;;;;;;2.45;2.25;;;;;;;;;;10536035;28;20035;-57
2023/05/27 05:16:04;;;;;;;2.92;2.20;;;;;;;;;;10538074;28;20024;-57
2023/05/27 05:21:05;;;;;;;7.10;2.47;;;;;;;;;;10525648;28;20032;-56
2023/05/27 05:26:06;;;;;;;3.05;2.20;;;;;;;;;;10528485;28;20020;-57
2023/05/27 05:31:07;;;;;;;4.38;3.20;;;;;;;;;;10530559;28;20081;-57
2023/05/27 05:36:08;;;;;;;3.40;2.63;;;;;;;;;;10510630;28;20028;-58
2023/05/27 05:41:08;;;;;;;2.88;2.50;;;;;;;;;;10535358;28;20444;-57
2023/05/27 05:46:09;;;;;;;3.67;2.40;;;;;;;;;;10525488;28;20105;-53
2023/05/27 05:51:09;;;;;;;3.65;2.58;;;;;;;;;;10521136;28;20051;-55
2023/05/27 05:56:10;;;;;;;3.55;2.80;;;;;;;;;;10520602;28;20033;-58
2023/05/27 06:01:11;;;;;;;6.00;3.05;;;;;;;;;;10519364;28;20037;-59
2023/05/27 06:06:11;;;;;;;9.88;3.15;;;;;;;;;;10520954;28;20031;-57
2023/05/27 06:11:12;;;;;;;7.50;5.47;;;;;;;;;;10515480;28;20035;-57
2023/05/27 06:16:12;;;;;;;8.20;5.18;;;;;;;;;;10519947;28;20399;-55
2023/05/27 06:21:13;;;;;;;16.70;7.18;;;;;;;;;;10500929;28;20116;-53
2023/05/27 06:26:15;;;;;;;16.05;7.28;;;;;;;;;;10505270;28;20024;-50
2023/05/27 06:31:15;;;;;;;12.90;7.57;;;;;;;;;;10522178;28;20106;-51
2023/05/27 06:36:16;;;;;;;14.10;7.63;;;;;;;;;;10515135;28;20020;-50
2023/05/27 06:41:17;;;;;;;10.30;7.80;;;;;;;;;;10531640;28;20028;-49
2023/05/27 06:46:17;;;;;;;13.52;8.55;;;;;;;;;;10530419;28;20059;-52
2023/05/27 06:51:18;;;;;;;11.23;7.80;;;;;;;;;;10534062;28;20478;-51
2023/05/27 06:56:19;;;;;;;14.10;8.20;;;;;;;;;;10531841;28;20431;-49
2023/05/27 07:01:19;;;;;;;15.02;7.82;;;;;;;;;;10531728;28;20035;-62
2023/05/27 07:06:20;;;;;;;12.65;7.13;;;;;;;;;;10532025;28;20080;-49
2023/05/27 07:11:21;;;;;;;9.15;6.88;;;;;;;;;;10531674;28;20055;-52
2023/05/27 07:16:22;;;;;;;7.32;5.90;;;;;;;;;;10541030;28;20107;-52
2023/05/27 07:21:22;;;;;;;11.32;7.35;;;;;;;;;;10541197;28;20032;-51
2023/05/27 07:26:23;;;;;;;11.93;6.10;;;;;;;;;;10521440;28;20046;-51
2023/05/27 07:31:25;;;;;;;13.13;6.78;;;;;;;;;;10540474;28;20028;-52
2023/05/27 07:36:26;;;;;;;7.85;5.60;;;;;;;;;;10536661;28;20051;-48
2023/05/27 07:41:29;;;;;;;12.80;6.43;;;;;;;;;;10536279;28;20020;-51
2023/05/27 07:46:30;;;;;;;16.80;6.25;;;;;;;;;;10536503;28;20127;-48
2023/05/27 07:51:31;;;;;;;9.02;5.53;;;;;;;;;;10535551;28;20411;-48
2023/05/27 07:56:34;;;;;;;11.80;6.43;;;;;;;;;;10536701;28;20617;-55
2023/05/27 08:01:34;;;;;;;11.27;6.43;;;;;;;;;;10534971;28;20039;-49
2023/05/27 08:06:35;;;;;;;13.68;7.88;;;;;;;;;;10536162;28;20035;-48
2023/05/27 08:11:36;;;;;;;11.20;7.28;;;;;;;;;;10535246;28;20522;-48
2023/05/27 08:16:37;;;;;;;7.55;6.20;;;;;;;;;;10538789;28;20066;-50
2023/05/27 08:21:37;;;;;;;8.60;6.20;;;;;;;;;;10537598;28;20028;-49
2023/05/27 08:26:38;;;;;;;12.38;6.82;;;;;;;;;;10537579;28;20020;-50
2023/05/27 08:31:40;;;;;;;9.35;6.38;;;;;;;;;;10526815;28;20056;-47
2023/05/27 08:36:40;;;;;;;13.88;6.93;;;;;;;;;;10537483;28;20024;-49
2023/05/27 08:41:41;;;;;;;10.20;6.80;;;;;;;;;;10538538;28;20032;-48
2023/05/27 08:46:42;;;;;;;10.98;7.20;;;;;;;;;;10537626;28;20056;-48
2023/05/27 08:51:45;;;;;;;10.57;6.50;;;;;;;;;;10536530;28;20463;-49
2023/05/27 08:56:48;;;;;;;9.50;5.82;;;;;;;;;;10534466;28;20063;-48
2023/05/27 09:01:51;;;;;;;9.25;6.05;;;;;;;;;;10533787;28;20020;-50
2023/05/27 09:06:52;;;;;;;8.60;6.15;;;;;;;;;;10515587;28;20032;-52
2023/05/27 09:11:54;;;;;;;8.05;5.63;;;;;;;;;;10533271;28;20029;-50
2023/05/27 09:16:56;;;;;;;11.15;6.22;;;;;;;;;;10535219;28;20488;-50
2023/05/27 09:21:57;;;;;;;9.20;6.28;;;;;;;;;;10534169;28;20451;-49
2023/05/27 09:26:57;;;;;;;10.73;6.15;;;;;;;;;;10535283;28;20031;-49
2023/05/27 09:31:58;;;;;;;7.32;5.55;;;;;;;;;;10535994;28;20031;-52
2023/05/27 09:36:58;;;;;;;9.90;6.13;;;;;;;;;;10535902;28;20028;-53
2023/05/27 09:42:00;;;;;;;9.27;6.22;;;;;;;;;;10534695;28;20317;-53
2023/05/27 09:47:02;;;;;;;10.55;5.97;;;;;;;;;;10533648;28;20044;-52
2023/05/27 09:52:06;;;;;;;7.97;5.97;;;;;;;;;;10521568;28;20085;-53
2023/05/27 09:57:07;;;;;;;9.55;6.35;;;;;;;;;;10532897;28;20032;-53
2023/05/27 10:02:10;;;;;;;13.63;6.20;;;;;;;;;;10515708;28;20024;-53
2023/05/27 10:07:12;;;;;;;9.10;5.78;;;;;;;;;;10516997;28;20028;-52
2023/05/27 10:12:15;;;;;;;8.57;6.00;;;;;;;;;;10514259;28;20016;-53
2023/05/27 10:17:16;;;;;;;10.63;6.60;;;;;;;;;;10536688;28;20107;-52
2023/05/27 10:22:16;;;;;;;7.95;5.43;;;;;;;;;;10533556;28;20081;-53
2023/05/27 10:27:17;;;;;;;8.27;5.85;;;;;;;;;;10533492;28;20028;-52
2023/05/27 10:32:17;;;;;;;9.20;6.10;;;;;;;;;;10532302;28;20316;-52
2023/05/27 10:37:22;;;;;;;7.13;5.30;;;;;;;;;;10534282;28;20035;-52
2023/05/27 10:42:24;;;;;;;8.30;5.75;;;;;;;;;;10532246;28;20024;-52
2023/05/27 10:47:29;;;;;;;8.32;5.93;;;;;;;;;;10531268;28;20066;-52
2023/05/27 10:52:33;;;;;;;6.18;5.35;;;;;;;;;;10520596;28;20164;-53
2023/05/27 10:57:34;;;;;;;10.32;5.93;;;;;;;;;;10514094;28;20498;-51
2023/05/27 11:02:38;;;;;;;8.82;5.40;;;;;;;;;;10531511;28;20066;-50
2023/05/27 11:07:40;;;;;;;6.55;5.25;;;;;;;;;;10514564;28;20028;-51
2023/05/27 11:12:45;;;;;;;8.77;5.32;;;;;;;;;;10532994;28;20048;-53
2023/05/27 11:17:45;;;;;;;6.90;5.60;;;;;;;;;;10537268;28;20070;-52
2023/05/27 11:22:51;;;;;;;11.07;5.30;;;;;;;;;;10527992;28;20074;-52
2023/05/27 11:27:51;;;;;;;5.78;5.18;;;;;;;;;;10522717;28;20032;-51
2023/05/27 11:32:52;;;;;;;6.82;5.47;;;;;;;;;;10528825;28;20402;-50
2023/05/27 11:37:53;;;;;;;9.57;5.45;;;;;;;;;;10523988;28;20395;-51
2023/05/27 11:43:01;;;;;;;7.70;5.05;;;;;;;;;;10523139;28;20040;-52
2023/05/27 11:48:02;;;;;;;6.55;5.20;;;;;;;;;;10521817;28;20119;-53
2023/05/27 11:53:03;;;;;;;6.88;4.78;;;;;;;;;;10526537;28;20082;-53
2023/05/27 11:58:04;;;;;;;7.85;5.53;;;;;;;;;;10526605;28;20078;-53
2023/05/27 12:03:04;;;;;;;6.50;5.80;;;;;;;;;;10536019;28;20453;-53
2023/05/27 12:08:05;;;;;;;7.13;5.28;;;;;;;;;;10532827;28;20387;-49
2023/05/27 12:13:06;;;;;;;6.60;4.72;;;;;;;;;;10543588;28;20467;-52
2023/05/27 12:18:07;;;;;;;6.43;5.38;;;;;;;;;;10539921;28;20081;-53
2023/05/27 12:23:07;;;;;;;7.22;5.45;;;;;;;;;;10518418;28;20067;-52
2023/05/27 12:28:09;;;;;;;6.25;4.60;;;;;;;;;;10521939;28;20035;-52
2023/05/27 12:33:10;;;;;;;6.93;5.03;;;;;;;;;;10528331;28;20024;-53
2023/05/27 12:38:10;;;;;;;6.15;5.15;;;;;;;;;;10535722;28;20028;-52
2023/05/27 12:43:11;;;;;;;7.03;4.90;;;;;;;;;;10524806;28;20491;-53
2023/05/27 12:48:12;;;;;;;8.93;5.55;;;;;;;;;;10521889;28;20533;-50
2023/05/27 12:53:13;;;;;;;9.45;5.40;;;;;;;;;;10524191;28;20043;-52
2023/05/27 12:58:14;;;;;;;9.10;5.53;;;;;;;;;;10519359;28;20044;-53
2023/05/27 13:03:14;;;;;;;10.75;5.45;;;;;;;;;;10532389;28;20023;-53
2023/05/27 13:08:15;;;;;;;9.18;5.25;;;;;;;;;;10516293;28;20020;-53
2023/05/27 13:13:16;;;;;;;6.22;5.03;;;;;;;;;;10530235;28;20024;-51
2023/05/27 13:18:16;;;;;;;11.23;5.28;;;;;;;;;;10536087;28;20048;-53
2023/05/27 13:23:17;;;;;;;6.25;4.53;;;;;;;;;;10535305;28;20060;-59
2023/05/27 13:28:18;;;;;;;6.95;4.65;;;;;;;;;;10523721;28;20487;-53
2023/05/27 13:33:19;;;;;;;6.13;4.78;;;;;;;;;;10530242;28;20070;-53
2023/05/27 13:38:19;;;;;;;7.13;5.30;;;;;;;;;;10511311;28;20042;-54
2023/05/27 13:43:20;;;;;;;7.28;5.18;;;;;;;;;;10519851;28;20048;-53
2023/05/27 13:48:20;;;;;;;6.53;5.18;;;;;;;;;;10527218;28;20024;-54
2023/05/27 13:53:21;;;;;;;5.13;4.63;;;;;;;;;;10531386;28;20032;-53
2023/05/27 13:58:22;;;;;;;7.75;5.10;;;;;;;;;;10528185;28;20230;-53
2023/05/27 14:03:22;;;;;;;5.28;4.70;;;;;;;;;;10531362;28;20020;-53
2023/05/27 14:08:23;;;;;;;6.60;4.78;;;;;;;;;;10527694;28;20048;-52
2023/05/27 14:13:24;;;;;;;11.02;5.60;;;;;;;;;;10524650;28;20020;-53
2023/05/27 14:18:24;;;;;;;11.43;5.40;;;;;;;;;;10521664;28;20483;-56
2023/05/27 14:23:25;;;;;;;11.57;5.32;;;;;;;;;;10512130;28;20402;-61
2023/05/27 14:28:25;;;;;;;12.38;5.60;;;;;;;;;;10528556;28;20028;-56
2023/05/27 14:33:26;;;;;;;8.40;5.70;;;;;;;;;;10520941;28;20077;-58
2023/05/27 14:38:27;;;;;;;10.45;5.55;;;;;;;;;;10530188;28;20028;-52
2023/05/27 14:43:27;;;;;;;10.45;5.53;;;;;;;;;;10528202;28;20090;-60
2023/05/27 14:48:28;;;;;;;7.78;5.10;;;;;;;;;;10531635;28;20028;-49
2023/05/27 14:53:28;;;;;;;6.80;5.72;;;;;;;;;;10526282;28;20032;-52
2023/05/27 14:58:29;;;;;;;12.85;5.72;;;;;;;;;;10521453;28;20039;-49
2023/05/27 15:03:30;;;;;;;6.55;5.05;;;;;;;;;;10520247;28;20031;-50
2023/05/27 15:08:31;;;;;;;17.38;5.95;;;;;;;;;;10521522;28;20034;-62
2023/05/27 15:13:31;;;;;;;8.65;5.68;;;;;;;;;;10526468;28;20027;-53
2023/05/27 15:18:32;;;;;;;10.65;5.85;;;;;;;;;;10527755;28;20054;-57
2023/05/27 15:23:34;;;;;;;7.60;6.03;;;;;;;;;;10530656;28;20024;-55
2023/05/27 15:28:34;;;;;;;9.40;5.38;;;;;;;;;;10531385;28;20094;-59
2023/05/27 15:33:35;;;;;;;7.75;5.45;;;;;;;;;;10532351;28;20077;-53
2023/05/27 15:38:35;;;;;;;5.93;5.28;;;;;;;;;;10539621;28;20027;-52
2023/05/27 15:43:36;;;;;;;10.00;5.78;;;;;;;;;;10537676;28;20040;-53
2023/05/27 15:48:37;;;;;;;10.63;5.70;;;;;;;;;;10540568;28;20024;-54
2023/05/27 15:53:37;;;;;;;9.05;5.93;;;;;;;;;;10538852;28;20477;-55
2023/05/27 15:58:38;;;;;;;7.10;5.22;;;;;;;;;;10539155;28;20479;-53
2023/05/27 16:03:39;;;;;;;8.50;5.78;;;;;;;;;;10536509;28;20085;-54
2023/05/27 16:08:39;;;;;;;6.97;5.30;;;;;;;;;;10518285;28;20029;-52
2023/05/27 16:13:40;;;;;;;9.07;5.72;;;;;;;;;;10528616;28;20028;-56
2023/05/27 16:18:40;;;;;;;7.00;5.80;;;;;;;;;;10511620;28;20035;-53
2023/05/27 16:23:41;;;;;;;7.25;5.53;;;;;;;;;;10526945;28;20037;-53
2023/05/27 16:28:42;;;;;;;8.23;6.05;;;;;;;;;;10524509;28;20032;-52
2023/05/27 16:33:43;;;;;;;8.20;5.60;;;;;;;;;;10535380;28;20028;-53
2023/05/27 16:38:44;;;;;;;10.00;6.05;;;;;;;;;;10537692;28;20028;-51
2023/05/27 16:43:44;;;;;;;9.18;6.00;;;;;;;;;;10534421;28;20036;-52
2023/05/27 16:48:45;;;;;;;6.65;5.65;;;;;;;;;;10534721;28;20024;-51
2023/05/27 16:53:46;;;;;;;9.57;5.90;;;;;;;;;;10535135;28;20274;-52
2023/05/27 16:58:46;;;;;;;10.88;5.72;;;;;;;;;;10536408;28;20032;-52
2023/05/27 17:03:47;;;;;;;10.18;5.53;;;;;;;;;;10535402;28;20027;-52
2023/05/27 17:08:47;;;;;;;8.05;5.00;;;;;;;;;;10535544;28;20039;-52
2023/05/27 17:13:48;;;;;;;11.52;6.35;;;;;;;;;;10535248;28;20032;-52
2023/05/27 17:18:49;;;;;;;7.18;5.20;;;;;;;;;;10526084;28;20059;-53
2023/05/27 17:23:49;;;;;;;5.88;5.28;;;;;;;;;;10526729;28;20475;-50
2023/05/27 17:28:50;;;;;;;9.52;6.65;;;;;;;;;;10521849;28;20291;-52
2023/05/27 17:33:52;;;;;;;12.80;6.65;;;;;;;;;;10528432;28;20025;-51
2023/05/27 17:38:53;;;;;;;9.93;7.43;;;;;;;;;;10521117;28;20283;-52
2023/05/27 17:43:53;;;;;;;8.18;6.25;;;;;;;;;;10508576;28;20345;-48
2023/05/27 17:48:54;;;;;;;11.65;7.07;;;;;;;;;;10532933;28;20059;-61
2023/05/27 17:53:54;;;;;;;11.80;6.55;;;;;;;;;;10513580;28;20032;-53
2023/05/27 17:58:55;;;;;;;8.85;6.68;;;;;;;;;;10528770;28;20459;-62
2023/05/27 18:03:56;;;;;;;10.00;6.55;;;;;;;;;;10515893;28;20032;-52
2023/05/27 18:08:56;;;;;;;13.75;6.30;;;;;;;;;;10518292;28;20028;-56
2023/05/27 18:13:58;;;;;;;13.18;6.20;;;;;;;;;;10512082;28;20035;-53
2023/05/27 18:18:59;;;;;;;9.40;6.38;;;;;;;;;;10524293;28;20040;-52
2023/05/27 18:24:00;;;;;;;12.00;5.85;;;;;;;;;;10525814;28;20510;-51
2023/05/27 18:29:01;;;;;;;6.32;5.65;;;;;;;;;;10532015;28;20032;-55
2023/05/27 18:34:01;;;;;;;11.95;6.57;;;;;;;;;;10517204;28;20032;-58
2023/05/27 18:39:02;;;;;;;15.18;6.53;;;;;;;;;;10503241;28;20040;-53
2023/05/27 18:44:03;;;;;;;13.48;6.97;;;;;;;;;;10500998;28;20495;-53
2023/05/27 18:49:04;;;;;;;13.23;6.10;;;;;;;;;;10516915;28;20150;-53
2023/05/27 18:54:04;;;;;;;10.82;6.28;;;;;;;;;;10513741;28;20394;-53
2023/05/27 18:59:06;;;;;;;7.88;5.53;;;;;;;;;;10520119;28;20039;-53
2023/05/27 19:04:06;;;;;;;9.30;5.22;;;;;;;;;;10515415;28;20032;-50
2023/05/27 19:09:07;;;;;;;8.90;6.25;;;;;;;;;;10525359;28;20029;-54
2023/05/27 19:14:08;;;;;;;12.48;6.57;;;;;;;;;;10533268;28;20028;-53
2023/05/27 19:19:08;;;;;;;10.05;5.60;;;;;;;;;;10530987;28;20043;-55
2023/05/27 19:24:09;;;;;;;9.60;6.10;;;;;;;;;;10540961;28;20551;-53
2023/05/27 19:29:09;;;;;;;7.78;5.85;;;;;;;;;;10539355;28;20525;-53
2023/05/27 19:34:10;;;;;;;7.65;5.60;;;;;;;;;;10541122;28;20036;-52
2023/05/27 19:39:11;;;;;;;7.97;5.85;;;;;;;;;;10528660;28;20043;-53
2023/05/27 19:44:11;;;;;;;8.25;5.20;;;;;;;;;;10521899;22;20077;-59
2023/05/27 19:49:12;;;;;;;8.13;5.43;;;;;;;;;;10497383;28;20456;-59
2023/05/27 19:54:13;;;;;;;7.38;5.90;;;;;;;;;;10495989;28;20066;-59
2023/05/27 19:59:15;;;;;;;6.97;5.82;;;;;;;;;;10496384;28;20062;-59
2023/05/27 20:04:15;;;;;;;8.40;5.68;;;;;;;;;;10487692;28;20033;-59
2023/05/27 20:09:16;;;;;;;6.68;5.93;;;;;;;;;;10491386;28;20467;-59
2023/05/27 20:14:16;;;;;;;7.88;5.35;;;;;;;;;;10492175;28;20411;-60
2023/05/27 20:19:17;;;;;;;7.72;5.57;;;;;;;;;;10493131;28;20588;-59
2023/05/27 20:24:17;;;;;;;9.45;5.80;;;;;;;;;;10495355;28;20684;-59
2023/05/27 20:29:18;;;;;;;7.03;5.93;;;;;;;;;;10494642;28;20388;-59
2023/05/27 20:34:19;;;;;;;7.03;5.32;;;;;;;;;;10467710;28;20032;-60
2023/05/27 20:39:19;;;;;;;6.75;5.43;;;;;;;;;;10466832;28;20033;-60
2023/05/27 20:44:20;;;;;;;10.15;5.97;;;;;;;;;;10472997;28;20049;-59
2023/05/27 20:49:21;;;;;;;8.77;5.65;;;;;;;;;;10493434;28;20036;-60
2023/05/27 20:54:21;;;;;;;9.07;5.18;;;;;;;;;;10492479;28;20027;-60
2023/05/27 20:59:22;;;;;;;6.32;5.20;;;;;;;;;;10481927;28;20032;-60
2023/05/27 21:04:23;;;;;;;8.45;5.45;;;;;;;;;;10491124;28;20024;-60
2023/05/27 21:09:23;;;;;;;8.30;5.15;;;;;;;;;;10478572;28;20082;-59
2023/05/27 21:14:24;;;;;;;8.50;5.47;;;;;;;;;;10481165;28;20029;-60
2023/05/27 21:19:24;;;;;;;10.07;5.45;;;;;;;;;;10487408;28;20032;-60
2023/05/27 21:24:25;;;;;;;8.30;5.70;;;;;;;;;;10489543;28;20020;-60
2023/05/27 21:29:26;;;;;;;10.50;5.50;;;;;;;;;;10487842;28;20029;-60
2023/05/27 21:34:28;;;;;;;7.95;5.45;;;;;;;;;;10489473;28;20487;-59
2023/05/27 21:39:30;;;;;;;10.48;5.53;;;;;;;;;;10479972;28;20571;-59
2023/05/27 21:44:31;;;;;;;8.70;5.60;;;;;;;;;;10478911;28;20036;-59
2023/05/27 21:49:31;;;;;;;7.38;5.30;;;;;;;;;;10469842;28;20111;-59
2023/05/27 21:54:32;;;;;;;7.80;5.28;;;;;;;;;;10483422;28;20036;-59
2023/05/27 21:59:33;;;;;;;9.75;5.03;;;;;;;;;;10463607;28;20040;-59
2023/05/27 22:04:34;;;;;;;12.38;5.75;;;;;;;;;;10462914;28;20075;-60
2023/05/27 22:09:35;;;;;;;13.40;5.85;;;;;;;;;;10479158;28;20024;-60
2023/05/27 22:14:35;;;;;;;11.40;5.35;;;;;;;;;;10485467;28;20136;-60
2023/05/27 22:19:36;;;;;;;7.75;5.45;;;;;;;;;;10477685;28;20103;-60
2023/05/27 22:24:37;;;;;;;11.48;5.35;;;;;;;;;;10487266;28;20025;-60
2023/05/27 22:29:38;;;;;;;8.35;4.88;;;;;;;;;;10485464;28;20036;-60
2023/05/27 22:34:39;;;;;;;7.65;5.90;;;;;;;;;;10468196;28;20110;-59
2023/05/27 22:39:39;;;;;;;11.90;5.25;;;;;;;;;;10467572;28;20055;-59
2023/05/27 22:44:40;;;;;;;7.03;5.13;;;;;;;;;;10484788;28;20156;-59
2023/05/27 22:49:41;;;;;;;11.05;5.70;;;;;;;;;;10481752;28;20404;-59
2023/05/27 22:54:41;;;;;;;8.27;5.40;;;;;;;;;;10489708;28;20033;-60
2023/05/27 22:59:42;;;;;;;9.15;5.47;;;;;;;;;;10485128;28;20043;-60
2023/05/27 23:04:42;;;;;;;9.82;5.30;;;;;;;;;;10468917;28;20029;-60
2023/05/27 23:09:43;;;;;;;14.35;5.60;;;;;;;;;;10462273;28;20127;-60
2023/05/27 23:14:44;;;;;;;7.97;5.32;;;;;;;;;;10477283;28;20042;-60
2023/05/27 23:19:44;;;;;;;6.30;4.90;;;;;;;;;;10460861;28;20036;-60
2023/05/27 23:24:45;;;;;;;7.90;5.38;;;;;;;;;;10485113;28;20086;-59
2023/05/27 23:29:45;;;;;;;10.50;4.93;;;;;;;;;;10477117;28;20036;-59
2023/05/27 23:34:46;;;;;;;6.68;5.22;;;;;;;;;;10477979;28;20029;-59
2023/05/27 23:39:46;;;;;;;5.88;4.40;;;;;;;;;;10477146;28;20543;-59
2023/05/27 23:44:47;;;;;;;11.38;4.95;;;;;;;;;;10483771;28;20049;-59
2023/05/27 23:49:48;;;;;;;7.60;4.65;;;;;;;;;;10462356;28;20029;-59
2023/05/27 23:54:48;;;;;;;10.02;5.18;;;;;;;;;;10488720;28;20028;-59
2023/05/27 23:59:49;;;;;;;5.43;4.85;;;;;;;;;;10460493;28;20036;-59
